Time;durP1;ratioP1;P1;durP2;ratioP2;P2;SDS_P1;SDS_P2;PMS_P1;PMS_P2;Temp;Humidity;BMP_temperature;BMP_pressure;BME280_temperature;BME280_humidity;BME280_pressure;Samples;Min_cycle;Max_cycle;Signal;HPM_P1;HPM_P2
2022/11/29 00:00:27;;;;;;;40.77;26.20;;;;;;;5.47;100.00;101263.97;5289485;28;20098;-77
2022/11/29 00:02:59;;;;;;;45.45;27.17;;;;;;;5.46;100.00;101267.38;5288872;28;20070;-77
2022/11/29 00:05:33;;;;;;;40.13;25.30;;;;;;;5.45;100.00;101260.47;5286327;28;20032;-78
2022/11/29 00:08:05;;;;;;;36.25;25.23;;;;;;;5.46;100.00;101263.94;5285487;28;20037;-77
2022/11/29 00:10:36;;;;;;;34.50;24.50;;;;;;;5.44;100.00;101263.91;5285158;28;20471;-78
2022/11/29 00:13:08;;;;;;;36.33;24.90;;;;;;;5.43;100.00;101262.16;5285109;28;20051;-77
2022/11/29 00:15:40;;;;;;;41.63;29.03;;;;;;;5.44;100.00;101265.59;5283989;28;20108;-78
2022/11/29 00:18:11;;;;;;;37.97;26.40;;;;;;;5.42;100.00;101269.88;5284701;28;20040;-78
2022/11/29 00:20:42;;;;;;;39.63;25.63;;;;;;;5.38;100.00;101270.72;5266563;28;20487;-77
2022/11/29 00:23:14;;;;;;;34.33;25.13;;;;;;;5.37;100.00;101279.28;5284429;28;20062;-77
2022/11/29 00:25:45;;;;;;;33.63;24.10;;;;;;;5.41;100.00;101278.47;5284328;28;20060;-78
2022/11/29 00:28:16;;;;;;;39.13;24.33;;;;;;;5.38;100.00;101279.31;5283593;28;20044;-77
2022/11/29 00:30:48;;;;;;;39.03;25.37;;;;;;;5.41;100.00;101279.38;5283797;28;20154;-78
2022/11/29 00:33:19;;;;;;;43.50;25.40;;;;;;;5.39;100.00;101275.88;5284190;28;20032;-78
2022/11/29 00:35:50;;;;;;;41.07;24.73;;;;;;;5.41;100.00;101284.53;5284253;28;20037;-77
2022/11/29 00:38:22;;;;;;;34.37;24.50;;;;;;;5.38;100.00;101281.03;5283336;28;20064;-79
2022/11/29 00:40:53;;;;;;;45.10;26.60;;;;;;;5.40;100.00;101276.75;5284341;28;20029;-77
2022/11/29 00:43:24;;;;;;;36.67;25.43;;;;;;;5.40;100.00;101280.22;5282786;28;20064;-77
2022/11/29 00:45:56;;;;;;;35.87;25.03;;;;;;;5.37;100.00;101280.16;5284035;28;20039;-77
2022/11/29 00:48:27;;;;;;;36.30;26.00;;;;;;;5.36;100.00;101278.44;5284046;28;20097;-77
2022/11/29 00:50:59;;;;;;;42.23;25.70;;;;;;;5.34;100.00;101276.66;5284189;28;20036;-77
2022/11/29 00:53:31;;;;;;;35.87;24.77;;;;;;;5.31;100.00;101274.88;5283663;28;20036;-77
2022/11/29 00:56:04;;;;;;;39.10;26.15;;;;;;;5.30;100.00;101276.59;5283559;28;20387;-77
2022/11/29 00:58:36;;;;;;;37.90;24.60;;;;;;;5.29;100.00;101271.41;5283864;28;20036;-76
2022/11/29 01:01:07;;;;;;;36.63;25.27;;;;;;;5.30;100.00;101268.00;5284349;28;20036;-77
2022/11/29 01:03:39;;;;;;;46.00;25.13;;;;;;;5.31;100.00;101272.28;5283549;28;20301;-76
2022/11/29 01:06:13;;;;;;;39.10;24.17;;;;;;;5.27;100.00;101273.09;5283928;28;20037;-77
2022/11/29 01:08:46;;;;;;;43.10;26.23;;;;;;;5.23;100.00;101277.34;5283864;28;20604;-77
2022/11/29 01:11:23;;;;;;;45.88;26.90;;;;;;;5.17;100.00;101273.78;5284272;28;20029;-77
2022/11/29 01:14:00;;;;;;;47.60;27.40;;;;;;;5.18;100.00;101278.09;5284218;28;20475;-77
2022/11/29 01:16:32;;;;;;;38.10;26.92;;;;;;;5.17;100.00;101281.53;5289184;28;20111;-76
2022/11/29 01:19:06;;;;;;;38.47;25.20;;;;;;;5.13;100.00;101274.59;5301512;28;20016;-76
2022/11/29 01:21:37;;;;;;;37.80;25.48;;;;;;;5.11;100.00;101284.88;5300646;28;20419;-76
2022/11/29 01:24:08;;;;;;;41.30;25.87;;;;;;;5.10;100.00;101285.72;5297856;28;20040;-77
2022/11/29 01:26:40;;;;;;;37.73;24.53;;;;;;;5.10;100.00;101281.44;5284339;28;20072;-77
2022/11/29 01:29:12;;;;;;;36.33;27.17;;;;;;;5.07;100.00;101286.56;5283267;28;20025;-77
2022/11/29 01:31:43;;;;;;;31.63;24.10;;;;;;;5.09;100.00;101284.84;5283623;28;20486;-78
2022/11/29 01:34:14;;;;;;;37.77;26.33;;;;;;;5.11;100.00;101295.22;5282500;28;20032;-78
2022/11/29 01:36:46;;;;;;;40.57;25.47;;;;;;;5.17;100.00;101291.88;5283864;28;20054;-78
2022/11/29 01:39:17;;;;;;;44.13;25.80;;;;;;;5.15;100.00;101289.25;5282552;28;20036;-77
2022/11/29 01:41:48;;;;;;;48.97;27.43;;;;;;;5.17;100.00;101294.44;5282128;28;20033;-78
2022/11/29 01:44:20;;;;;;;36.77;25.73;;;;;;;5.18;100.00;101296.19;5283378;28;20470;-76
2022/11/29 01:46:53;;;;;;;38.40;25.40;;;;;;;5.16;100.00;101300.47;5283544;28;20032;-76
2022/11/29 01:49:33;;;;;;;38.00;26.33;;;;;;;5.17;100.00;101300.50;5283565;28;20024;-77
2022/11/29 01:52:08;;;;;;;43.30;26.92;;;;;;;5.17;100.00;101304.78;5286400;28;20040;-77
2022/11/29 01:54:44;;;;;;;61.20;28.90;;;;;;;5.18;100.00;101312.56;5287216;28;20043;-77
2022/11/29 01:57:18;;;;;;;71.72;29.23;;;;;;;5.19;100.00;101310.88;5288694;28;20025;-77
2022/11/29 01:59:55;;;;;;;92.00;31.13;;;;;;;5.18;100.00;101320.31;5302951;28;20072;-76
2022/11/29 02:02:34;;;;;;;94.55;33.80;;;;;;;5.15;100.00;101320.25;5299504;28;20044;-77
2022/11/29 02:05:06;;;;;;;132.40;35.45;;;;;;;5.15;100.00;101322.84;5287575;28;20074;-77
2022/11/29 02:07:38;;;;;;;67.32;31.05;;;;;;;5.24;100.00;101330.78;5286872;28;20071;-76
2022/11/29 02:10:10;;;;;;;93.55;32.88;;;;;;;5.27;100.00;101330.84;5286306;28;20049;-77
2022/11/29 02:12:51;;;;;;;176.40;38.10;;;;;;;5.25;100.00;101339.41;5286979;28;20081;-76
2022/11/29 02:15:55;;;;;;;169.88;36.80;;;;;;;5.27;100.00;101332.56;5286774;28;20358;-77
2022/11/29 02:18:59;;;;;;;161.38;36.15;;;;;;;5.29;100.00;101338.63;5286875;28;20475;-76
2022/11/29 02:21:43;;;;;;;90.90;34.13;;;;;;;5.29;100.00;101336.03;5287059;28;20111;-76
2022/11/29 02:24:20;;;;;;;176.77;38.95;;;;;;;5.27;100.00;101338.59;5287377;28;20032;-76
2022/11/29 02:27:16;;;;;;;189.43;40.28;;;;;;;5.32;100.00;101340.41;5286761;28;20122;-77
2022/11/29 02:30:01;;;;;;;204.52;36.55;;;;;;;5.32;100.00;101340.41;5287436;28;20112;-77
2022/11/29 02:33:06;;;;;;;272.70;41.17;;;;;;;5.29;100.00;101343.78;5286956;28;20043;-76
2022/11/29 02:35:44;;;;;;;113.00;32.88;;;;;;;5.31;100.00;101344.66;5286917;28;20036;-77
2022/11/29 02:38:18;;;;;;;183.27;35.45;;;;;;;5.34;100.00;101336.97;5286557;28;20051;-76
2022/11/29 02:41:27;;;;;;;195.88;35.40;;;;;;;5.34;100.00;101336.97;5286507;28;20028;-76
2022/11/29 02:44:04;;;;;;;126.82;32.35;;;;;;;5.34;100.00;101333.53;5286368;28;20099;-77
2022/11/29 02:47:07;;;;;;;293.08;42.45;;;;;;;5.31;100.00;101334.34;5286281;28;20379;-77
2022/11/29 02:49:47;;;;;;;142.93;33.33;;;;;;;5.31;100.00;101342.09;5286330;28;20035;-76
2022/11/29 02:52:59;;;;;;;180.65;35.70;;;;;;;5.32;100.00;101330.06;5286836;28;20119;-77
2022/11/29 02:55:34;;;;;;;99.65;30.88;;;;;;;5.30;100.00;101338.66;5256235;28;20131;-77
2022/11/29 02:58:50;;;;;;;113.15;32.80;;;;;;;5.31;100.00;101344.66;5286428;28;20038;-77
2022/11/29 03:01:29;;;;;;;131.43;33.25;;;;;;;5.28;100.00;101349.78;5281018;28;20039;-77
2022/11/29 03:04:41;;;;;;;107.78;31.15;;;;;;;5.30;100.00;101358.47;5286968;28;20063;-77
2022/11/29 03:07:28;;;;;;;102.95;31.88;;;;;;;5.25;100.00;101360.97;5286167;28;20032;-76
2022/11/29 03:10:02;;;;;;;122.90;32.03;;;;;;;5.21;100.00;101356.56;5286040;28;20035;-77
2022/11/29 03:12:40;;;;;;;139.15;31.13;;;;;;;5.20;100.00;101364.28;5285292;28;20025;-76
2022/11/29 03:15:26;;;;;;;115.93;31.92;;;;;;;5.14;100.00;101357.31;5285630;28;20403;-76
2022/11/29 03:18:26;;;;;;;168.82;34.33;;;;;;;5.07;100.00;101365.78;5285598;28;20040;-76
2022/11/29 03:21:17;;;;;;;145.73;36.42;;;;;;;5.02;100.00;101368.25;5285409;28;20025;-77
2022/11/29 03:23:52;;;;;;;194.13;35.80;;;;;;;4.94;100.00;101369.81;5285713;28;20029;-76
2022/11/29 03:26:44;;;;;;;160.10;38.25;;;;;;;4.90;100.00;101376.66;5283702;28;20056;-77
2022/11/29 03:29:18;;;;;;;132.50;31.05;;;;;;;4.91;100.00;101368.06;5285603;28;20024;-77
2022/11/29 03:32:16;;;;;;;230.85;33.88;;;;;;;4.90;100.00;101373.22;5285303;28;20379;-76
2022/11/29 03:35:06;;;;;;;160.23;30.95;;;;;;;4.82;100.00;101378.22;5284254;28;20031;-76
2022/11/29 03:38:03;;;;;;;154.10;30.27;;;;;;;4.78;100.00;101378.97;5284372;28;20467;-76
2022/11/29 03:41:09;;;;;;;100.53;28.65;;;;;;;4.75;100.00;101386.69;5285390;28;20044;-76
2022/11/29 03:44:01;;;;;;;122.25;29.23;;;;;;;4.71;100.00;101390.91;5284655;28;20036;-77
2022/11/29 03:46:45;;;;;;;130.68;29.20;;;;;;;4.64;100.00;101385.59;5283483;28;20059;-77
2022/11/29 03:49:29;;;;;;;155.13;31.40;;;;;;;4.56;100.00;101393.16;5283817;28;20033;-76
2022/11/29 03:52:17;;;;;;;113.68;27.45;;;;;;;4.57;100.00;101400.94;5284975;28;20090;-77
2022/11/29 03:55:04;;;;;;;119.20;30.30;;;;;;;4.53;100.00;101399.13;5285478;28;20035;-77
2022/11/29 03:58:09;;;;;;;121.97;26.70;;;;;;;4.49;100.00;101399.03;5284667;28;20029;-77
2022/11/29 04:00:47;;;;;;;114.57;27.05;;;;;;;4.49;100.00;101407.66;5284648;28;20480;-77
2022/11/29 04:03:21;;;;;;;80.68;26.30;;;;;;;4.56;100.00;101408.66;5285190;28;20036;-77
2022/11/29 04:06:39;;;;;;;133.88;28.50;;;;;;;4.49;100.00;101401.59;5285063;28;20517;-77
2022/11/29 04:09:28;;;;;;;162.07;31.23;;;;;;;4.47;100.00;101408.44;5285086;28;20451;-77
2022/11/29 04:12:02;;;;;;;124.70;27.10;;;;;;;4.48;100.00;101416.22;5284556;28;20037;-77
2022/11/29 04:15:06;;;;;;;89.10;24.80;;;;;;;4.54;100.00;101418.97;5284117;28;20464;-76
2022/11/29 04:18:19;;;;;;;170.13;33.13;;;;;;;4.49;100.00;101420.56;5284330;28;20379;-77
2022/11/29 04:20:51;;;;;;;138.02;28.20;;;;;;;4.49;100.00;101412.81;5284533;28;20372;-77
2022/11/29 04:23:40;;;;;;;168.93;28.77;;;;;;;4.43;100.00;101416.94;5284268;28;20024;-77
2022/11/29 04:26:27;;;;;;;131.75;28.15;;;;;;;4.38;100.00;101422.91;5285125;28;20048;-77
2022/11/29 04:29:14;;;;;;;125.30;25.83;;;;;;;4.38;100.00;101417.75;5284291;28;20086;-78
2022/11/29 04:32:22;;;;;;;99.38;25.20;;;;;;;4.41;100.00;101419.50;5284462;28;20040;-78
2022/11/29 04:35:21;;;;;;;132.77;26.45;;;;;;;4.35;100.00;101424.53;5284224;28;20111;-77
2022/11/29 04:38:13;;;;;;;80.07;23.25;;;;;;;4.37;100.00;101422.88;5284693;28;20024;-78
2022/11/29 04:41:07;;;;;;;160.50;29.17;;;;;;;4.25;100.00;101423.47;5284304;28;20037;-77
2022/11/29 04:43:50;;;;;;;129.15;25.52;;;;;;;4.30;100.00;101432.19;5284093;28;20021;-77
2022/11/29 04:46:43;;;;;;;80.78;24.90;;;;;;;4.26;100.00;101429.50;5283626;28;20132;-77
2022/11/29 04:49:32;;;;;;;85.30;23.73;;;;;;;4.27;100.00;101431.25;5283748;28;20536;-77
2022/11/29 04:52:15;;;;;;;72.00;22.45;;;;;;;4.25;100.00;101433.78;5283993;28;20037;-77
2022/11/29 04:55:13;;;;;;;95.22;23.98;;;;;;;4.27;100.00;101434.69;5283705;28;20040;-77
2022/11/29 04:58:11;;;;;;;73.78;22.55;;;;;;;4.31;100.00;101441.66;5284618;28;20515;-76
2022/11/29 05:01:02;;;;;;;80.13;22.85;;;;;;;4.27;100.00;101437.28;5291506;28;20029;-76
2022/11/29 05:03:57;;;;;;;69.45;21.02;;;;;;;4.28;100.00;101433.88;5290750;28;20064;-76
2022/11/29 05:06:50;;;;;;;85.63;22.10;;;;;;;4.29;100.00;101456.22;5289888;28;20315;-76
2022/11/29 05:09:35;;;;;;;79.78;21.85;;;;;;;4.26;100.00;101450.13;5289059;28;20028;-77
2022/11/29 05:12:37;;;;;;;79.97;21.25;;;;;;;4.22;100.00;101456.94;5287776;28;20031;-76
2022/11/29 05:15:31;;;;;;;109.40;22.38;;;;;;;4.20;100.00;101464.63;5287933;28;20055;-77
2022/11/29 05:18:20;;;;;;;82.85;22.80;;;;;;;4.25;100.00;101463.84;5290502;28;20021;-78
2022/11/29 05:21:15;;;;;;;133.30;26.08;;;;;;;4.16;100.00;101467.97;5294488;28;20039;-77
2022/11/29 05:23:58;;;;;;;163.50;26.73;;;;;;;4.10;100.00;101470.38;5290569;28;20031;-75
2022/11/29 05:26:54;;;;;;;166.32;29.75;;;;;;;4.10;100.00;101479.84;5295534;28;20612;-75
2022/11/29 05:29:34;;;;;;;127.78;27.08;;;;;;;4.09;100.00;101485.84;5293857;28;20036;-75
2022/11/29 05:32:27;;;;;;;115.22;27.63;;;;;;;4.14;100.00;101484.25;5289815;28;20056;-75
2022/11/29 05:35:27;;;;;;;170.20;33.65;;;;;;;4.09;100.00;101485.84;5290972;28;20051;-76
2022/11/29 05:38:11;;;;;;;81.57;24.48;;;;;;;4.20;100.00;101489.56;5289347;28;20085;-75
2022/11/29 05:40:53;;;;;;;115.43;24.98;;;;;;;4.21;100.00;101493.88;5290421;28;20412;-75
2022/11/29 05:44:01;;;;;;;118.38;25.98;;;;;;;4.24;100.00;101487.94;5289640;28;20048;-76
2022/11/29 05:46:51;;;;;;;106.15;24.60;;;;;;;4.28;100.00;101492.31;5272989;28;20031;-75
2022/11/29 05:49:31;;;;;;;121.30;26.65;;;;;;;4.21;100.00;101501.63;5288157;28;20037;-75
2022/11/29 05:52:23;;;;;;;116.55;27.17;;;;;;;4.29;100.00;101504.41;5287945;28;20086;-75
2022/11/29 05:55:05;;;;;;;94.00;25.35;;;;;;;4.33;100.00;101498.47;5287635;28;20115;-75
2022/11/29 05:57:52;;;;;;;129.02;28.20;;;;;;;4.35;100.00;101504.56;5286499;28;20032;-75
2022/11/29 06:00:27;;;;;;;83.20;26.92;;;;;;;4.38;100.00;101507.22;5287448;28;20024;-75
2022/11/29 06:03:11;;;;;;;86.75;26.42;;;;;;;4.43;100.00;101513.38;5286965;28;20029;-75
2022/11/29 06:05:56;;;;;;;69.05;26.35;;;;;;;4.53;100.00;101517.91;5287438;28;20356;-75
2022/11/29 06:08:40;;;;;;;99.43;28.40;;;;;;;4.51;100.00;101517.00;5287155;28;20373;-76
2022/11/29 06:11:22;;;;;;;86.03;30.08;;;;;;;4.51;100.00;101527.31;5287068;28;20030;-75
2022/11/29 06:14:12;;;;;;;89.22;28.58;;;;;;;4.48;100.00;101527.25;5286448;28;20036;-75
2022/11/29 06:17:17;;;;;;;77.97;28.08;;;;;;;4.49;100.00;101536.75;5286065;28;20153;-75
2022/11/29 06:19:57;;;;;;;85.80;31.42;;;;;;;4.44;100.00;101538.31;5286525;28;20029;-76
2022/11/29 06:22:38;;;;;;;89.43;30.58;;;;;;;4.47;100.00;101540.97;5287025;28;20035;-75
2022/11/29 06:25:43;;;;;;;53.75;26.67;;;;;;;4.54;100.00;101555.81;5285184;28;20083;-75
2022/11/29 06:28:23;;;;;;;94.60;27.38;;;;;;;4.52;100.00;101559.16;5287593;28;20044;-76
2022/11/29 06:31:03;;;;;;;78.05;26.35;;;;;;;4.49;100.00;101552.25;5286967;28;20048;-75
2022/11/29 06:33:55;;;;;;;104.05;29.98;;;;;;;4.46;100.00;101559.91;5287217;28;20032;-75
2022/11/29 06:36:49;;;;;;;56.15;24.35;;;;;;;4.52;100.00;101561.75;5285720;28;20028;-75
2022/11/29 06:39:21;;;;;;;44.85;24.73;;;;;;;4.47;100.00;101573.69;5286563;28;20040;-75
2022/11/29 06:41:52;;;;;;;45.47;24.97;;;;;;;4.45;100.00;101580.53;5286349;28;20034;-76
2022/11/29 06:44:24;;;;;;;47.73;24.33;;;;;;;4.44;100.00;101583.94;5285519;28;20267;-76
2022/11/29 06:47:12;;;;;;;43.17;25.50;;;;;;;4.49;100.00;101587.50;5284405;28;20422;-76
2022/11/29 06:49:47;;;;;;;33.90;24.65;;;;;;;4.55;100.00;101580.78;5285963;28;20074;-76
2022/11/29 06:52:33;;;;;;;35.65;25.33;;;;;;;4.62;100.00;101580.91;5285703;28;20372;-75
2022/11/29 06:55:11;;;;;;;34.40;23.27;;;;;;;4.64;100.00;101589.59;5286494;28;20452;-75
2022/11/29 06:58:03;;;;;;;34.38;23.40;;;;;;;4.67;100.00;101593.13;5286522;28;20035;-75
2022/11/29 07:01:17;;;;;;;35.37;25.03;;;;;;;4.67;100.00;101595.72;5286332;28;20032;-76
2022/11/29 07:04:21;;;;;;;34.17;23.80;;;;;;;4.67;100.00;101598.28;5256493;28;20040;-75
2022/11/29 07:06:52;;;;;;;37.65;24.48;;;;;;;4.62;100.00;101601.59;5272586;28;20049;-76
2022/11/29 07:09:33;;;;;;;30.83;22.73;;;;;;;4.72;100.00;101594.09;5285882;28;20391;-75
2022/11/29 07:12:05;;;;;;;35.90;23.90;;;;;;;4.76;100.00;101597.63;5285615;28;20086;-75
2022/11/29 07:14:36;;;;;;;35.87;24.30;;;;;;;4.80;100.00;101596.00;5286351;28;20038;-76
2022/11/29 07:17:33;;;;;;;42.43;25.67;;;;;;;4.72;100.00;101612.19;5284906;28;20549;-76
2022/11/29 07:20:29;;;;;;;36.33;24.52;;;;;;;4.82;100.00;101602.09;5285624;28;20044;-76
2022/11/29 07:23:28;;;;;;;41.17;23.85;;;;;;;4.83;100.00;101611.56;5286601;28;20371;-76
2022/11/29 07:26:20;;;;;;;33.78;21.95;;;;;;;4.91;100.00;101623.84;5285376;28;20135;-75
2022/11/29 07:29:06;;;;;;;42.70;23.20;;;;;;;4.90;100.00;101624.66;5285900;28;20387;-76
2022/11/29 07:31:45;;;;;;;42.67;25.55;;;;;;;4.85;100.00;101623.69;5284163;28;20073;-75
2022/11/29 07:34:30;;;;;;;38.53;24.95;;;;;;;4.92;100.00;101630.75;5286359;28;20436;-75
2022/11/29 07:37:28;;;;;;;45.33;26.15;;;;;;;4.88;100.00;101631.53;5286062;28;20341;-75
2022/11/29 07:40:19;;;;;;;40.83;24.75;;;;;;;4.90;100.00;101644.47;5285593;28;20044;-75
2022/11/29 07:43:33;;;;;;;39.05;25.13;;;;;;;4.95;100.00;101644.59;5283814;28;20032;-75
2022/11/29 07:46:04;;;;;;;43.35;24.95;;;;;;;4.92;100.00;101650.53;5274352;28;20511;-75
2022/11/29 07:48:35;;;;;;;52.07;27.47;;;;;;;4.93;100.00;101653.16;5284645;28;20120;-75
2022/11/29 07:51:08;;;;;;;44.03;25.87;;;;;;;4.99;100.00;101648.97;5268567;28;20041;-76
2022/11/29 07:53:42;;;;;;;49.03;25.15;;;;;;;4.96;100.00;101647.22;5286667;28;20078;-75
2022/11/29 07:56:15;;;;;;;51.35;26.48;;;;;;;4.97;100.00;101646.34;5289789;28;20025;-76
2022/11/29 07:58:46;;;;;;;55.15;26.20;;;;;;;4.92;100.00;101656.56;5302917;28;20055;-74
2022/11/29 08:01:17;;;;;;;67.43;28.33;;;;;;;4.91;100.00;101652.25;5303317;28;20036;-77
2022/11/29 08:03:49;;;;;;;53.37;26.63;;;;;;;4.92;100.00;101647.97;5301272;28;20174;-76
2022/11/29 08:06:25;;;;;;;66.70;28.50;;;;;;;4.96;100.00;101652.38;5299233;28;20063;-75
2022/11/29 08:08:57;;;;;;;49.58;26.42;;;;;;;5.03;100.00;101662.00;5284376;28;20029;-76
2022/11/29 08:11:29;;;;;;;50.28;25.33;;;;;;;5.06;100.00;101650.88;5284299;28;20115;-76
2022/11/29 08:14:02;;;;;;;56.47;26.17;;;;;;;5.02;100.00;101654.22;5284156;28;20463;-77
2022/11/29 08:16:33;;;;;;;65.43;26.60;;;;;;;4.93;100.00;101655.75;5284708;28;20021;-74
2022/11/29 08:19:04;;;;;;;43.07;24.47;;;;;;;5.01;100.00;101657.66;5284656;28;20509;-77
2022/11/29 08:21:36;;;;;;;57.83;26.13;;;;;;;5.01;100.00;101661.13;5283293;28;20451;-77
2022/11/29 08:24:07;;;;;;;58.17;25.97;;;;;;;5.05;100.00;101660.34;5267047;28;20032;-76
2022/11/29 08:26:39;;;;;;;63.47;26.60;;;;;;;5.03;100.00;101661.16;5284861;28;20128;-76
2022/11/29 08:29:10;;;;;;;76.37;27.00;;;;;;;4.99;100.00;101665.38;5284668;28;20471;-77
2022/11/29 08:31:41;;;;;;;78.53;28.67;;;;;;;5.00;100.00;101669.69;5283882;28;20054;-77
2022/11/29 08:34:13;;;;;;;78.00;28.17;;;;;;;5.04;100.00;101676.69;5282413;28;20040;-76
2022/11/29 08:36:44;;;;;;;82.60;27.17;;;;;;;4.99;100.00;101682.56;5284071;28;20363;-75
2022/11/29 08:39:16;;;;;;;76.57;28.17;;;;;;;4.98;100.00;101679.13;5284100;28;20061;-75
2022/11/29 08:41:48;;;;;;;58.73;27.70;;;;;;;4.97;100.00;101674.78;5283906;28;20044;-75
2022/11/29 08:44:19;;;;;;;90.72;30.25;;;;;;;4.93;100.00;101675.56;5270767;28;20029;-75
2022/11/29 08:55:26;;;;;;;75.10;30.25;;;;;;;5.17;100.00;101693.38;5284684;28;20032;-75
2022/11/29 08:58:05;;;;;;;67.10;29.27;;;;;;;5.23;100.00;101690.03;5283363;28;20025;-76
2022/11/29 09:00:37;;;;;;;88.13;31.77;;;;;;;5.30;100.00;101695.41;5284571;28;20033;-74
2022/11/29 09:06:08;;;;;;;124.35;32.35;;;;;;;5.21;100.00;101687.41;5283519;28;20117;-74
2022/11/29 09:08:42;;;;;;;89.68;30.50;;;;;;;5.25;100.00;101697.00;5285906;28;20521;-74
2022/11/29 09:11:18;;;;;;;120.95;31.90;;;;;;;5.25;100.00;101703.91;5265756;28;20544;-74
2022/11/29 09:13:53;;;;;;;86.43;29.15;;;;;;;5.38;100.00;101703.34;5283720;28;20031;-75
2022/11/29 09:16:27;;;;;;;117.18;32.88;;;;;;;5.34;100.00;101709.25;5283476;28;20024;-75
2022/11/29 09:18:59;;;;;;;122.28;32.05;;;;;;;5.40;100.00;101711.13;5283410;28;20056;-75
2022/11/29 09:21:33;;;;;;;114.53;31.40;;;;;;;5.40;100.00;101706.81;5283057;28;20067;-76
2022/11/29 09:24:05;;;;;;;168.98;34.53;;;;;;;5.32;100.00;101713.53;5282343;28;20021;-75
2022/11/29 09:26:39;;;;;;;136.77;35.60;;;;;;;5.39;100.00;101714.53;5283580;28;20053;-76
2022/11/29 09:29:10;;;;;;;163.57;35.50;;;;;;;5.43;100.00;101716.38;5283163;28;20049;-76
2022/11/29 09:31:44;;;;;;;130.67;34.83;;;;;;;5.54;100.00;101727.84;5282542;28;20036;-76
2022/11/29 09:34:17;;;;;;;156.07;35.53;;;;;;;5.64;100.00;101723.75;5283112;28;20032;-76
2022/11/29 09:36:48;;;;;;;100.38;32.42;;;;;;;5.77;100.00;101723.19;5282486;28;20583;-76
2022/11/29 09:39:20;;;;;;;122.03;33.93;;;;;;;5.88;100.00;101730.31;5283002;28;20115;-76
2022/11/29 09:42:17;;;;;;;156.87;34.33;;;;;;;5.90;100.00;101734.66;5283574;28;20036;-76
2022/11/29 09:45:00;;;;;;;147.07;33.90;;;;;;;5.90;100.00;101744.16;5283384;28;20017;-76
2022/11/29 09:47:41;;;;;;;;;;;;;;;6.05;100.00;101748.81;5283784;28;20029;-76
2022/11/29 09:50:33;;;;;;;128.60;32.47;;;;;;;6.08;100.00;101741.13;5283431;28;20387;-76
2022/11/29 09:53:36;;;;;;;123.97;34.13;;;;;;;6.11;100.00;101746.38;5282836;28;20029;-76
2022/11/29 09:56:17;;;;;;;174.45;33.55;;;;;;;6.02;100.00;101750.50;5283130;28;20028;-76
2022/11/29 09:59:01;;;;;;;169.18;31.85;;;;;;;6.03;100.00;101751.38;5283542;28;20035;-76
2022/11/29 10:01:45;;;;;;;83.07;24.75;;;;;;;6.11;100.00;101755.00;5283858;28;20033;-76
2022/11/29 10:04:20;;;;;;;114.43;26.60;;;;;;;6.07;100.00;101755.78;5283457;28;20040;-76
2022/11/29 10:06:54;;;;;;;104.32;26.45;;;;;;;6.00;100.00;101753.91;5283409;28;20471;-76
2022/11/29 10:09:42;;;;;;;103.30;25.80;;;;;;;6.05;100.00;101757.44;5282894;28;20032;-76
2022/11/29 10:12:22;;;;;;;89.35;25.20;;;;;;;6.10;100.00;101755.84;5285009;28;20067;-76
2022/11/29 10:15:03;;;;;;;71.90;24.48;;;;;;;6.24;100.00;101753.53;5285199;28;20056;-77
2022/11/29 10:17:42;;;;;;;103.80;24.70;;;;;;;6.27;100.00;101757.91;5286977;28;20033;-76
2022/11/29 10:20:22;;;;;;;111.95;26.38;;;;;;;6.29;100.00;101756.22;5286881;28;20028;-76
2022/11/29 10:23:28;;;;;;;98.90;24.63;;;;;;;6.36;100.00;101756.38;5286781;28;20024;-75
2022/11/29 10:25:59;;;;;;;122.07;23.15;;;;;;;6.24;100.00;101744.91;5286364;28;20052;-76
2022/11/29 10:28:32;;;;;;;121.47;24.67;;;;;;;6.25;100.00;101750.13;5286483;28;20043;-76
2022/11/29 10:31:27;;;;;;;131.88;25.80;;;;;;;6.37;100.00;101750.34;5285168;28;20037;-76
2022/11/29 10:34:01;;;;;;;106.25;24.80;;;;;;;6.34;100.00;101736.47;5286746;28;20048;-76
2022/11/29 10:36:39;;;;;;;97.20;25.40;;;;;;;6.44;100.00;101746.19;5286264;28;20024;-76
2022/11/29 10:39:36;;;;;;;154.38;27.17;;;;;;;6.51;100.00;101747.19;5286129;28;20060;-76
2022/11/29 10:45:24;;;;;;;166.05;25.15;;;;;;;6.29;100.00;101744.13;5286440;28;20032;-74
2022/11/29 10:48:06;;;;;;;213.63;27.08;;;;;;;6.20;100.00;101746.56;5286202;28;20139;-75
2022/11/29 10:50:42;;;;;;;131.98;24.33;;;;;;;6.28;100.00;101763.13;5285948;28;20035;-75
2022/11/29 10:53:25;;;;;;;146.55;27.13;;;;;;;6.28;100.00;101750.19;5286699;28;20413;-75
2022/11/29 10:56:07;;;;;;;197.65;30.42;;;;;;;6.17;100.00;101759.44;5284491;28;20454;-75
2022/11/29 10:59:05;;;;;;;143.73;25.85;;;;;;;6.06;100.00;101751.44;5285606;28;20033;-75
2022/11/29 11:01:40;;;;;;;105.40;24.08;;;;;;;6.00;100.00;101757.34;5286161;28;20036;-75
2022/11/29 11:04:34;;;;;;;168.57;28.27;;;;;;;5.98;100.00;101755.59;5285818;28;20028;-74
2022/11/29 11:07:05;;;;;;;151.85;26.40;;;;;;;6.05;100.00;101751.41;5285464;28;20116;-75
2022/11/29 11:09:45;;;;;;;205.97;29.40;;;;;;;5.98;100.00;101753.84;5286155;28;20527;-74
2022/11/29 11:12:19;;;;;;;166.65;28.80;;;;;;;6.02;100.00;101749.63;5285606;28;20411;-74
2022/11/29 11:14:50;;;;;;;166.23;27.52;;;;;;;6.07;100.00;101755.78;5285575;28;20033;-75
2022/11/29 11:17:24;;;;;;;162.67;29.37;;;;;;;5.97;100.00;101746.06;5285094;28;20082;-75
2022/11/29 11:20:17;;;;;;;209.10;31.52;;;;;;;6.00;100.00;101752.16;5285375;28;20025;-76
2022/11/29 11:23:04;;;;;;;189.68;31.80;;;;;;;6.05;100.00;101752.28;5285673;28;20031;-75
2022/11/29 11:25:38;;;;;;;151.82;31.13;;;;;;;6.15;100.00;101751.66;5285585;28;20070;-76
2022/11/29 11:28:20;;;;;;;135.27;29.58;;;;;;;6.22;100.00;101757.81;5285434;28;20028;-76
2022/11/29 11:31:12;;;;;;;158.93;30.63;;;;;;;6.18;100.00;101762.06;5285340;28;20051;-76
2022/11/29 11:33:45;;;;;;;174.98;30.13;;;;;;;6.21;100.00;101763.81;5284314;28;20420;-76
2022/11/29 11:36:19;;;;;;;156.73;30.23;;;;;;;6.20;100.00;101765.56;5287836;28;20460;-75
2022/11/29 11:38:51;;;;;;;176.50;30.33;;;;;;;6.21;100.00;101763.81;5286840;28;20107;-75
2022/11/29 11:44:51;;;;;;;120.05;30.55;;;;;;;6.35;100.00;101774.47;5286105;28;20033;-75
2022/11/29 11:47:26;;;;;;;134.50;31.48;;;;;;;6.31;100.00;101773.56;5268887;28;20047;-76
2022/11/29 11:50:03;;;;;;;111.82;30.33;;;;;;;6.33;100.00;101771.84;5284736;28;20047;-76
2022/11/29 11:52:36;;;;;;;136.88;32.70;;;;;;;6.30;100.00;101776.97;5283591;28;20380;-75
2022/11/29 11:55:31;;;;;;;101.53;28.58;;;;;;;6.47;100.00;101784.22;5284491;28;20039;-76
2022/11/29 11:58:02;;;;;;;109.38;31.85;;;;;;;6.47;100.00;101781.63;5283304;28;20098;-75
2022/11/29 12:00:48;;;;;;;120.87;32.00;;;;;;;6.48;100.00;101786.81;5284627;28;20146;-75
2022/11/29 12:03:36;;;;;;;86.65;28.15;;;;;;;6.53;100.00;101789.50;5284649;28;20017;-76
2022/11/29 12:06:17;;;;;;;83.93;26.70;;;;;;;6.38;100.00;101790.94;5284552;28;20028;-76
2022/11/29 12:08:51;;;;;;;99.10;27.88;;;;;;;6.36;100.00;101802.13;5284743;28;20025;-76
2022/11/29 12:11:25;;;;;;;92.95;29.73;;;;;;;6.42;100.00;101807.41;5284967;28;20135;-75
2022/11/29 12:13:59;;;;;;;87.50;28.33;;;;;;;6.49;100.00;101801.53;5284468;28;20089;-76
2022/11/29 12:16:35;;;;;;;71.78;26.13;;;;;;;6.63;100.00;101804.38;5284897;28;20068;-76
2022/11/29 12:19:23;;;;;;;104.32;29.73;;;;;;;6.69;100.00;101806.25;5296856;28;20029;-75
2022/11/29 12:22:01;;;;;;;80.70;28.45;;;;;;;6.64;100.00;101810.47;5295543;28;20024;-76
2022/11/29 12:24:50;;;;;;;84.07;27.48;;;;;;;6.71;100.00;101809.72;5286184;28;20071;-74
2022/11/29 12:27:21;;;;;;;55.88;24.55;;;;;;;6.83;100.00;101806.53;5285109;28;20102;-76
2022/11/29 12:29:52;;;;;;;86.20;29.70;;;;;;;6.72;100.00;101812.34;5283968;28;20448;-76